createdAt,value
2023-03-11T00:00:59.609Z,81.50
2023-03-11T00:03:29.131Z,81.60
2023-03-11T00:06:01.527Z,81.50
2023-03-11T00:08:30.624Z,81.60
2023-03-11T00:11:02.022Z,81.70
2023-03-11T00:13:32.067Z,81.70
2023-03-11T00:16:02.363Z,81.80
2023-03-11T00:18:32.184Z,81.80
2023-03-11T00:21:01.973Z,81.80
2023-03-11T00:23:32.319Z,81.90
2023-03-11T00:26:03.393Z,81.90
2023-03-11T00:28:34.366Z,82.00
2023-03-11T00:31:03.787Z,81.90
2023-03-11T00:33:32.920Z,82.00
2023-03-11T00:36:02.036Z,81.90
2023-03-11T00:38:31.236Z,81.90
2023-03-11T00:41:01.789Z,82.00
2023-03-11T00:43:35.084Z,82.00
2023-03-11T00:46:05.134Z,82.10
2023-03-11T00:48:34.267Z,82.10
2023-03-11T00:51:03.633Z,82.10
2023-03-11T00:53:32.722Z,82.20
2023-03-11T00:56:08.242Z,82.30
2023-03-11T00:58:39.400Z,82.40
2023-03-11T01:01:14.007Z,82.50
2023-03-11T01:03:43.575Z,82.50
2023-03-11T01:06:16.466Z,82.50
2023-03-11T01:08:45.590Z,82.60
2023-03-11T01:11:14.685Z,82.70
2023-03-11T01:13:45.227Z,82.80
2023-03-11T01:16:14.396Z,82.80
2023-03-11T01:18:43.602Z,83.00
2023-03-11T01:21:12.762Z,82.70
2023-03-11T01:23:42.041Z,82.80
2023-03-11T01:26:14.577Z,82.70
2023-03-11T01:28:45.134Z,82.70
2023-03-11T01:31:14.339Z,82.70
2023-03-11T01:33:43.513Z,82.80
2023-03-11T01:36:14.285Z,82.80
2023-03-11T01:38:43.356Z,82.90
2023-03-11T01:41:12.772Z,82.90
2023-03-11T01:43:51.900Z,82.80
2023-03-11T01:46:26.094Z,82.80
2023-03-11T01:48:57.251Z,82.70
2023-03-11T01:51:31.489Z,82.70
2023-03-11T01:54:04.068Z,82.80
2023-03-11T01:56:34.133Z,82.70
2023-03-11T01:59:05.140Z,82.60
2023-03-11T02:01:36.484Z,82.70
2023-03-11T02:04:07.051Z,82.70
2023-03-11T02:06:36.611Z,82.70
2023-03-11T02:09:05.793Z,82.70
2023-03-11T02:11:35.508Z,82.70
2023-03-11T02:14:09.943Z,82.70
2023-03-11T02:16:39.724Z,82.60
2023-03-11T02:19:13.973Z,82.50
2023-03-11T02:21:48.976Z,82.50
2023-03-11T02:24:27.444Z,82.40
2023-03-11T02:26:59.544Z,82.50
2023-03-11T02:29:31.235Z,82.50
2023-03-11T02:32:06.224Z,82.50
2023-03-11T02:34:38.139Z,82.50
2023-03-11T02:37:09.986Z,82.50
2023-03-11T02:39:41.829Z,82.50
2023-03-11T02:42:19.668Z,82.60
2023-03-11T02:44:54.909Z,82.60
2023-03-11T02:47:24.197Z,82.50
2023-03-11T02:49:56.025Z,82.50
2023-03-11T02:52:26.655Z,82.50
2023-03-11T02:54:57.073Z,82.50
2023-03-11T02:57:27.650Z,82.40
2023-03-11T02:59:56.793Z,82.40
2023-03-11T03:02:25.830Z,82.40
2023-03-11T03:04:55.601Z,82.40
2023-03-11T03:07:24.709Z,82.40
2023-03-11T03:09:53.790Z,82.30
2023-03-11T03:12:22.901Z,82.30
2023-03-11T03:14:53.412Z,82.10
2023-03-11T03:17:22.848Z,82.10
2023-03-11T03:19:51.890Z,81.90
2023-03-11T03:22:21.107Z,81.70
2023-03-11T03:24:50.772Z,81.60
2023-03-11T03:27:20.008Z,81.40
2023-03-11T03:29:49.422Z,81.40
2023-03-11T03:32:20.044Z,81.20
2023-03-11T03:34:49.207Z,81.20
2023-03-11T03:37:18.849Z,81.10
2023-03-11T03:39:48.973Z,81.10
2023-03-11T03:42:18.357Z,81.10
2023-03-11T03:44:48.398Z,81.00
2023-03-11T03:47:19.016Z,80.90
2023-03-11T03:49:48.889Z,81.00
2023-03-11T03:52:18.240Z,81.10
2023-03-11T03:54:50.824Z,81.00
2023-03-11T03:57:20.006Z,81.00
2023-03-11T03:59:50.097Z,81.10
2023-03-11T04:02:20.584Z,81.10
2023-03-11T04:04:52.287Z,81.20
2023-03-11T04:07:21.263Z,81.30
2023-03-11T04:09:50.338Z,81.30
2023-03-11T04:12:19.453Z,81.20
2023-03-11T04:14:49.098Z,81.20
2023-03-11T04:17:18.964Z,81.30
2023-03-11T04:19:50.226Z,81.30
2023-03-11T04:22:19.342Z,81.50
2023-03-11T04:24:48.509Z,81.60
2023-03-11T04:27:17.678Z,81.80
2023-03-11T04:29:47.322Z,82.10
2023-03-11T04:32:16.704Z,82.30
2023-03-11T04:34:46.472Z,82.60
2023-03-11T04:37:20.784Z,82.80
2023-03-11T04:39:53.421Z,83.20
2023-03-11T04:42:22.713Z,83.40
2023-03-11T04:44:52.237Z,83.80
2023-03-11T04:47:21.842Z,84.10
2023-03-11T04:49:51.081Z,84.30
2023-03-11T04:52:21.570Z,84.60
2023-03-11T04:54:50.775Z,84.70
2023-03-11T04:57:20.035Z,85.00
2023-03-11T04:59:49.748Z,85.10
2023-03-11T05:02:19.641Z,85.30
2023-03-11T05:04:55.837Z,85.60
2023-03-11T05:07:26.451Z,85.70
2023-03-11T05:09:55.866Z,85.80
2023-03-11T05:12:25.347Z,86.00
2023-03-11T05:14:56.038Z,86.10
2023-03-11T05:17:25.149Z,86.40
2023-03-11T05:19:55.918Z,86.70
2023-03-11T05:22:31.196Z,87.00
2023-03-11T05:25:00.327Z,87.10
2023-03-11T05:27:29.675Z,87.10
2023-03-11T05:29:59.575Z,87.50
2023-03-11T05:32:30.211Z,87.50
2023-03-11T05:34:59.309Z,87.70
2023-03-11T05:37:31.988Z,87.80
2023-03-11T05:40:05.870Z,87.90
2023-03-11T05:42:36.080Z,88.00
2023-03-11T05:45:06.388Z,88.10
2023-03-11T05:47:36.424Z,88.20
2023-03-11T05:50:07.520Z,88.30
2023-03-11T05:52:38.027Z,88.40
2023-03-11T05:55:09.939Z,88.50
2023-03-11T05:57:40.731Z,88.50
2023-03-11T06:00:15.534Z,88.60
2023-03-11T06:02:51.154Z,88.60
2023-03-11T06:05:39.407Z,88.70
2023-03-11T06:08:10.335Z,88.80
2023-03-11T06:10:39.976Z,88.80
2023-03-11T06:13:16.773Z,88.80
2023-03-11T06:15:51.263Z,88.90
2023-03-11T06:18:22.368Z,89.00
2023-03-11T06:20:51.675Z,89.10
2023-03-11T06:23:22.503Z,89.20
2023-03-11T06:25:57.665Z,89.30
2023-03-11T06:28:30.802Z,89.50
2023-03-11T06:31:08.791Z,89.40
2023-03-11T06:33:38.277Z,89.60
2023-03-11T06:36:08.627Z,89.60
2023-03-11T06:38:39.052Z,89.70
2023-03-11T06:41:10.857Z,89.80
2023-03-11T06:43:40.660Z,89.90
2023-03-11T06:46:11.489Z,90.00
2023-03-11T06:48:41.939Z,90.00
2023-03-11T06:51:11.921Z,90.10
2023-03-11T06:53:42.506Z,90.30
2023-03-11T06:56:15.186Z,90.30
2023-03-11T06:58:49.806Z,90.40
2023-03-11T07:01:21.497Z,90.30
2023-03-11T07:03:51.983Z,90.40
2023-03-11T07:06:23.281Z,90.40
2023-03-11T07:08:55.548Z,90.50
2023-03-11T07:11:33.969Z,90.40
2023-03-11T07:14:10.870Z,90.30
2023-03-11T07:16:46.142Z,90.30
2023-03-11T07:19:30.676Z,90.40
2023-03-11T07:21:59.733Z,90.40
2023-03-11T07:24:30.178Z,90.50
2023-03-11T07:26:59.215Z,90.50
2023-03-11T07:29:28.256Z,90.50
2023-03-11T07:31:57.377Z,90.60
2023-03-11T07:34:26.693Z,90.70
2023-03-11T07:36:55.751Z,91.10
2023-03-11T07:39:25.164Z,90.70
2023-03-11T07:41:55.747Z,90.70
2023-03-11T07:44:31.367Z,90.70
2023-03-11T07:47:03.006Z,90.70
2023-03-11T07:49:32.303Z,90.70
2023-03-11T07:52:01.916Z,90.60
2023-03-11T07:54:31.143Z,90.60
2023-03-11T07:57:01.621Z,90.60
2023-03-11T07:59:30.683Z,90.50
2023-03-11T08:01:59.979Z,90.40
2023-03-11T08:04:28.978Z,90.40
2023-03-11T08:06:58.059Z,90.40
2023-03-11T08:09:27.133Z,90.30
2023-03-11T08:11:56.149Z,90.30
2023-03-11T08:14:26.602Z,90.20
2023-03-11T08:16:55.965Z,90.20
2023-03-11T08:19:24.995Z,90.10
2023-03-11T08:21:54.131Z,90.10
2023-03-11T08:24:23.321Z,90.10
2023-03-11T08:26:52.613Z,90.00
2023-03-11T08:29:21.811Z,90.00
2023-03-11T08:31:52.520Z,89.90
2023-03-11T08:34:22.503Z,89.90
2023-03-11T08:36:51.874Z,89.90
2023-03-11T08:39:20.928Z,89.70
2023-03-11T08:41:49.951Z,89.70
2023-03-11T08:44:18.980Z,89.60
2023-03-11T08:46:48.416Z,89.50
2023-03-11T08:49:20.296Z,89.40
2023-03-11T08:51:49.438Z,89.40
2023-03-11T08:54:18.507Z,89.40
2023-03-11T08:56:48.689Z,89.40
2023-03-11T08:59:17.752Z,89.40
2023-03-11T09:01:46.955Z,89.30
2023-03-11T09:04:18.194Z,89.30
2023-03-11T09:06:49.016Z,89.30
2023-03-11T09:09:20.394Z,89.20
2023-03-11T09:11:50.063Z,89.00
2023-03-11T09:14:19.088Z,88.90
2023-03-11T09:16:48.203Z,88.80
2023-03-11T09:19:17.274Z,88.80
2023-03-11T09:21:46.553Z,88.70
2023-03-11T09:24:17.011Z,88.70
2023-03-11T09:26:46.074Z,88.60
2023-03-11T09:29:15.293Z,88.50
2023-03-11T09:31:44.563Z,88.40
2023-03-11T09:34:16.144Z,88.50
2023-03-11T09:36:45.811Z,88.50
2023-03-11T09:39:16.352Z,89.40
2023-03-11T09:41:58.304Z,88.50
2023-03-11T09:44:33.632Z,88.60
2023-03-11T09:47:26.256Z,88.70
2023-03-11T09:50:21.381Z,88.80
2023-03-11T09:53:02.272Z,88.90
2023-03-11T09:55:38.887Z,89.10
2023-03-11T09:58:19.149Z,89.20
2023-03-11T10:00:49.105Z,89.30
2023-03-11T10:03:33.009Z,89.40
2023-03-11T10:06:09.883Z,89.60
2023-03-11T10:08:45.139Z,89.70
2023-03-11T10:11:32.308Z,89.80
2023-03-11T10:14:11.368Z,89.90
2023-03-11T10:16:55.629Z,90.10
2023-03-11T10:19:36.639Z,90.10
2023-03-11T10:22:16.648Z,90.10
2023-03-11T10:24:58.865Z,90.20
2023-03-11T10:27:34.216Z,90.30
2023-03-11T10:30:11.137Z,90.30
2023-03-11T10:32:45.962Z,90.40
2023-03-11T10:35:20.249Z,90.40
2023-03-11T10:37:54.848Z,90.50
2023-03-11T10:40:29.505Z,90.50
2023-03-11T10:43:04.008Z,90.60
2023-03-11T10:45:38.720Z,90.70
2023-03-11T10:48:11.661Z,90.70
2023-03-11T10:50:48.531Z,90.80
2023-03-11T10:53:19.853Z,90.90
2023-03-11T10:55:51.210Z,90.90
2023-03-11T10:58:23.770Z,91.00
2023-03-11T11:01:04.048Z,91.10
2023-03-11T11:03:35.418Z,91.20
2023-03-11T11:06:07.196Z,91.20
2023-03-11T11:08:36.325Z,91.30
2023-03-11T11:11:05.842Z,91.30
2023-03-11T11:13:36.585Z,91.40
2023-03-11T11:16:19.044Z,91.40
2023-03-11T11:18:50.993Z,91.50
2023-03-11T11:21:32.533Z,91.50
2023-03-11T11:24:11.379Z,91.70
2023-03-11T11:26:40.488Z,91.80
2023-03-11T11:29:17.039Z,91.90
2023-03-11T11:31:47.530Z,91.90
2023-03-11T11:34:34.865Z,92.00
2023-03-11T11:37:06.414Z,92.00
2023-03-11T11:39:51.774Z,92.20
2023-03-11T11:42:22.396Z,92.30
2023-03-11T11:44:57.870Z,92.30
2023-03-11T11:47:31.511Z,92.40
2023-03-11T11:50:05.123Z,92.40
2023-03-11T11:52:38.333Z,92.50
2023-03-11T11:55:18.248Z,92.50
2023-03-11T11:57:47.468Z,92.60
2023-03-11T12:00:24.372Z,92.60
2023-03-11T12:03:11.152Z,92.60
2023-03-11T12:05:47.095Z,92.60
2023-03-11T12:08:22.625Z,92.60
2023-03-11T12:10:56.049Z,92.70
2023-03-11T12:13:49.420Z,92.60
2023-03-11T12:16:33.530Z,92.70
2023-03-11T12:19:11.408Z,92.70
2023-03-11T12:21:55.922Z,92.70
2023-03-11T12:24:45.201Z,92.70
2023-03-11T12:27:20.861Z,92.70
2023-03-11T12:29:53.302Z,92.80
2023-03-11T12:32:29.355Z,92.70
2023-03-11T12:35:04.719Z,92.80
2023-03-11T12:37:33.918Z,92.80
2023-03-11T12:40:38.349Z,92.80
2023-03-11T12:43:42.795Z,92.90
2023-03-11T12:46:13.175Z,93.00
2023-03-11T12:48:46.670Z,93.00
2023-03-11T12:52:01.249Z,92.90
2023-03-11T12:54:32.190Z,93.00
2023-03-11T12:57:02.675Z,93.00
2023-03-11T13:00:07.376Z,93.00
2023-03-11T13:03:02.233Z,93.10
2023-03-11T13:05:45.427Z,93.10
2023-03-11T13:08:17.096Z,93.10
2023-03-11T13:10:48.795Z,93.10
2023-03-11T13:13:32.618Z,93.10
2023-03-11T13:16:43.095Z,93.20
2023-03-11T13:19:38.894Z,93.30
2023-03-11T13:22:49.472Z,93.30
2023-03-11T13:25:34.859Z,93.30
2023-03-11T13:28:27.803Z,93.30
2023-03-11T13:31:06.481Z,93.30
2023-03-11T13:33:53.257Z,93.40
2023-03-11T13:36:45.392Z,93.50
2023-03-11T13:39:40.430Z,93.60
2023-03-11T13:42:27.814Z,93.70
2023-03-11T13:44:58.799Z,93.80
2023-03-11T13:47:30.162Z,93.80
2023-03-11T13:50:04.805Z,93.90
2023-03-11T13:52:36.749Z,93.90
2023-03-11T13:55:10.479Z,93.90
2023-03-11T13:57:39.922Z,94.00
2023-03-11T14:00:17.976Z,94.00
2023-03-11T14:02:51.131Z,94.10
2023-03-11T14:05:25.657Z,94.10
2023-03-11T14:07:55.069Z,94.20
2023-03-11T14:10:29.956Z,94.20
2023-03-11T14:13:16.370Z,94.30
2023-03-11T14:15:52.651Z,94.30
2023-03-11T14:18:37.953Z,94.30
2023-03-11T14:21:12.001Z,94.30
2023-03-11T14:23:44.364Z,94.30
2023-03-11T14:26:20.933Z,94.30
2023-03-11T14:28:53.485Z,94.30
2023-03-11T14:31:31.405Z,94.30
2023-03-11T14:34:06.865Z,94.20
2023-03-11T14:36:44.240Z,94.20
2023-03-11T14:39:30.737Z,94.30
2023-03-11T14:42:07.993Z,94.40
2023-03-11T14:44:42.173Z,94.40
2023-03-11T14:47:17.985Z,94.40
2023-03-11T14:49:48.365Z,94.30
2023-03-11T14:52:22.131Z,94.40
2023-03-11T14:54:53.524Z,94.40
2023-03-11T14:57:31.422Z,94.50
2023-03-11T15:00:00.809Z,94.50
2023-03-11T15:02:43.800Z,94.50
2023-03-11T15:05:19.713Z,94.50
2023-03-11T15:07:52.174Z,94.60
2023-03-11T15:10:21.382Z,94.60
2023-03-11T15:12:52.252Z,94.60
2023-03-11T15:15:27.421Z,94.70
2023-03-11T15:17:58.952Z,94.70
2023-03-11T15:20:31.500Z,94.70
2023-03-11T15:23:03.038Z,94.70
2023-03-11T15:25:34.734Z,94.70
2023-03-11T15:28:24.408Z,94.70
2023-03-11T15:31:15.165Z,94.70
2023-03-11T15:33:45.039Z,94.70
2023-03-11T15:36:31.423Z,94.70
2023-03-11T15:39:16.285Z,94.70
2023-03-11T15:41:47.225Z,94.70
2023-03-11T15:44:31.164Z,94.70
2023-03-11T15:47:00.990Z,94.70
2023-03-11T15:49:30.845Z,95.10
2023-03-11T15:52:00.653Z,94.80
2023-03-11T15:54:29.887Z,94.80
2023-03-11T15:57:01.859Z,94.80
2023-03-11T15:59:32.283Z,94.80
2023-03-11T16:02:01.362Z,94.90
2023-03-11T16:04:30.552Z,94.90
2023-03-11T16:07:07.820Z,94.90
2023-03-11T16:09:37.598Z,94.90
2023-03-11T16:12:15.248Z,94.90
2023-03-11T16:14:46.118Z,94.90
2023-03-11T16:17:16.049Z,94.90
2023-03-11T16:19:46.556Z,94.90
2023-03-11T16:22:19.775Z,94.90
2023-03-11T16:24:50.870Z,94.90
2023-03-11T16:27:20.489Z,94.90
2023-03-11T16:29:50.960Z,94.90
2023-03-11T16:32:19.959Z,94.90
2023-03-11T16:34:49.067Z,94.90
2023-03-11T16:37:21.470Z,94.90
2023-03-11T16:39:50.527Z,94.90
2023-03-11T16:42:24.336Z,94.90
2023-03-11T16:44:55.038Z,95.00
2023-03-11T16:47:24.139Z,95.00
2023-03-11T16:49:53.601Z,94.90
2023-03-11T16:52:23.601Z,94.90
2023-03-11T16:54:52.681Z,94.90
2023-03-11T16:57:21.953Z,94.90
2023-03-11T16:59:52.157Z,94.90
2023-03-11T17:02:24.534Z,95.00
2023-03-11T17:04:53.770Z,95.00
2023-03-11T17:07:24.252Z,95.00
2023-03-11T17:09:53.292Z,95.00
2023-03-11T17:12:23.184Z,94.90
2023-03-11T17:14:52.662Z,94.90
2023-03-11T17:17:23.888Z,94.90
2023-03-11T17:19:52.914Z,94.80
2023-03-11T17:22:21.977Z,94.80
2023-03-11T17:24:51.181Z,94.70
2023-03-11T17:27:20.286Z,94.70
2023-03-11T17:29:49.322Z,94.70
2023-03-11T17:32:20.055Z,94.70
2023-03-11T17:34:50.693Z,94.70
2023-03-11T17:37:19.883Z,94.70
2023-03-11T17:39:49.086Z,94.70
2023-03-11T17:42:18.492Z,94.70
2023-03-11T17:44:51.658Z,94.80
2023-03-11T17:47:22.033Z,94.80
2023-03-11T17:49:52.755Z,94.80
2023-03-11T17:52:21.881Z,94.70
2023-03-11T17:54:52.097Z,94.70
2023-03-11T17:57:21.131Z,94.80
2023-03-11T17:59:52.675Z,94.80
2023-03-11T18:02:22.285Z,94.90
2023-03-11T18:04:53.996Z,94.90
2023-03-11T18:07:23.806Z,94.90
2023-03-11T18:09:53.786Z,94.90
2023-03-11T18:12:23.208Z,94.90
2023-03-11T18:14:52.238Z,94.80
2023-03-11T18:17:21.527Z,94.80
2023-03-11T18:19:50.580Z,94.80
2023-03-11T18:22:21.095Z,94.80
2023-03-11T18:24:50.153Z,95.20
2023-03-11T18:27:19.220Z,94.80
2023-03-11T18:29:48.234Z,94.80
2023-03-11T18:32:17.331Z,94.80
2023-03-11T18:34:46.421Z,94.80
2023-03-11T18:37:15.378Z,94.80
2023-03-11T18:39:45.832Z,94.70
2023-03-11T18:42:16.057Z,94.70
2023-03-11T18:44:45.273Z,94.70
2023-03-11T18:47:14.381Z,94.80
2023-03-11T18:49:43.637Z,94.80
2023-03-11T18:52:12.650Z,94.80
2023-03-11T18:54:41.724Z,94.80
2023-03-11T18:57:12.243Z,94.80
2023-03-11T18:59:41.332Z,94.70
2023-03-11T19:02:11.178Z,94.90
2023-03-11T19:04:40.609Z,95.00
2023-03-11T19:07:09.738Z,95.10
2023-03-11T19:09:38.828Z,95.10
2023-03-11T19:12:08.298Z,95.10
2023-03-11T19:14:38.764Z,95.20
2023-03-11T19:17:07.941Z,95.30
2023-03-11T19:19:37.308Z,95.30
2023-03-11T19:22:06.457Z,95.30
2023-03-11T19:24:38.561Z,95.30
2023-03-11T19:27:07.610Z,95.50
2023-03-11T19:29:38.244Z,95.60
2023-03-11T19:32:07.861Z,95.70
2023-03-11T19:34:37.083Z,95.70
2023-03-11T19:37:06.136Z,95.80
2023-03-11T19:39:35.209Z,95.90
2023-03-11T19:42:04.396Z,96.00
2023-03-11T19:44:33.481Z,96.10
2023-03-11T19:47:03.955Z,96.10
2023-03-11T19:49:33.301Z,96.10
2023-03-11T19:52:02.519Z,96.10
2023-03-11T19:54:31.615Z,96.20
2023-03-11T19:57:00.869Z,96.20
2023-03-11T19:59:30.189Z,96.30
2023-03-11T20:01:59.416Z,96.30
2023-03-11T20:04:30.537Z,96.30
2023-03-11T20:07:00.291Z,96.30
2023-03-11T20:09:29.404Z,96.40
2023-03-11T20:12:01.293Z,96.30
2023-03-11T20:14:30.422Z,96.20
2023-03-11T20:16:59.724Z,96.20
2023-03-11T20:19:30.459Z,96.30
2023-03-11T20:21:59.633Z,96.30
2023-03-11T20:24:28.958Z,96.30
2023-03-11T20:26:57.942Z,96.30
2023-03-11T20:29:27.027Z,96.30
2023-03-11T20:31:56.187Z,96.30
2023-03-11T20:34:25.571Z,96.30
2023-03-11T20:36:56.033Z,96.20
2023-03-11T20:39:25.333Z,96.20
2023-03-11T20:41:54.472Z,96.20
2023-03-11T20:44:23.724Z,96.20
2023-03-11T20:46:54.886Z,96.20
2023-03-11T20:49:24.214Z,96.20
2023-03-11T20:51:53.383Z,96.20
2023-03-11T20:54:23.945Z,96.10
2023-03-11T20:56:53.092Z,96.20
2023-03-11T20:59:22.185Z,96.10
2023-03-11T21:01:51.411Z,96.10
2023-03-11T21:04:21.405Z,96.20
2023-03-11T21:06:52.238Z,96.10
2023-03-11T21:09:21.326Z,96.10
2023-03-11T21:11:52.052Z,96.10
2023-03-11T21:14:22.030Z,96.00
2023-03-11T21:16:51.594Z,96.00
2023-03-11T21:19:22.448Z,96.00
2023-03-11T21:21:51.743Z,96.00
2023-03-11T21:24:20.993Z,96.00
2023-03-11T21:26:51.598Z,96.00
2023-03-11T21:29:22.139Z,96.00
2023-03-11T21:31:51.325Z,96.00
2023-03-11T21:34:20.422Z,96.00
2023-03-11T21:36:50.024Z,96.00
2023-03-11T21:39:20.610Z,95.90
2023-03-11T21:41:53.352Z,95.90
2023-03-11T21:44:22.544Z,95.90
2023-03-11T21:46:51.713Z,95.90
2023-03-11T21:49:21.020Z,95.80
2023-03-11T21:51:50.170Z,95.80
2023-03-11T21:54:19.260Z,95.80
2023-03-11T21:56:48.387Z,95.80
2023-03-11T21:59:18.895Z,95.80
2023-03-11T22:01:48.051Z,95.70
2023-03-11T22:04:17.273Z,95.70
2023-03-11T22:06:46.486Z,95.60
2023-03-11T22:09:15.708Z,95.50
2023-03-11T22:11:44.947Z,95.50
2023-03-11T22:14:14.074Z,95.40
2023-03-11T22:16:44.584Z,95.50
2023-03-11T22:19:14.034Z,95.50
2023-03-11T22:21:43.233Z,95.50
2023-03-11T22:24:12.361Z,95.40
2023-03-11T22:26:41.472Z,95.40
2023-03-11T22:29:13.354Z,95.40
2023-03-11T22:31:44.125Z,95.40
2023-03-11T22:34:13.164Z,95.40
2023-03-11T22:36:42.289Z,95.30
2023-03-11T22:39:11.284Z,95.20
2023-03-11T22:41:40.338Z,95.20
2023-03-11T22:44:09.448Z,95.20
2023-03-11T22:46:38.454Z,95.20
2023-03-11T22:49:09.017Z,95.20
2023-03-11T22:51:38.117Z,95.20
2023-03-11T22:54:07.312Z,95.20
2023-03-11T22:56:36.696Z,95.10
2023-03-11T22:59:05.905Z,95.10
2023-03-11T23:01:34.966Z,95.10
2023-03-11T23:04:04.183Z,95.10
2023-03-11T23:06:34.700Z,95.00
2023-03-11T23:09:04.506Z,95.10
2023-03-11T23:11:33.570Z,95.10
2023-03-11T23:14:02.822Z,95.00
2023-03-11T23:16:32.244Z,94.90
2023-03-11T23:19:01.386Z,94.90
2023-03-11T23:21:32.783Z,94.80
2023-03-11T23:24:06.051Z,94.80
2023-03-11T23:26:36.351Z,94.70
2023-03-11T23:29:10.147Z,94.70
2023-03-11T23:31:39.235Z,94.60
2023-03-11T23:34:08.435Z,94.60
2023-03-11T23:36:37.703Z,94.50
2023-03-11T23:39:08.187Z,94.40
2023-03-11T23:41:38.084Z,94.30
2023-03-11T23:44:07.218Z,94.40
2023-03-11T23:46:36.297Z,94.20
2023-03-11T23:49:05.393Z,94.10
2023-03-11T23:51:34.454Z,93.90
2023-03-11T23:54:03.638Z,94.20
2023-03-11T23:56:35.289Z,93.70
2023-03-11T23:59:05.136Z,93.60
